Fai una donazione per la manutenzione ed il rinnovamento della strumentazione meteorologica e per il sito che la ospita.


Webcam more information Webcam



altri nostri siti meteo:

Previsioni audio clicca per ascoltarePrevisioni audio

RISCHIO INCENDIRischio incendi

PomeziameteoSito sul meteo

MeteopomeziaSito sul meteo

Pomeziameteo DashboardSito sul meteo

Caput FrigorisSito sul meteo

BarcellonameteoSito sul meteo

MeteoipassiSito sul meteo

TortoretometeolidoSito sul meteo

CastelnuovovomanometeoSito sul meteo

MeteogonzagaSito sul meteo

MeteonetworkInvio dai a Meteonetwork

Weather UndergroundInvio dai a Weather Underground

Scarica App android ViterbometeoInvio dai a Weather Underground



Nessuna attenzione richiesta    Non ci sono allerte meteo.

Report METAR

   
LIRV - Viterbo (it-Mil), Italy
Distanza dalla stazione: W 4 km
Dati ricevuti: 20-10-2021 19:55
DATI Obsoleti
Sereno  
Sereno  
   Vento: SW 7.4 km/h
Vento: SW 7.4 km/h
Temperatura: 13°C
P.to Rugiada: 11°C
Umidita: 88%
Barometro: 1025 hPa
Visibilita: oltre 10 km
dettagli cloud: Sereno
LIRV 201755Z 22004KT CAVOK 13/11 Q1025
LIQN - Rieti, Italy
Distanza dalla stazione: E 59 km
Dati ricevuti: 20-10-2021 19:50
DATI Obsoleti
Parzialmente nuvoloso  
Parzialmente nuvoloso  
   Vento: Variabile 3.7 km/h
Vento: Variabile 3.7 km/h
Temperatura: 15°C
P.to Rugiada: 10°C
Umidita: 72%
Barometro: 1026 hPa
Nuvole: Parzialmente nuvoloso
Visibilita: 9 km
dettagli cloud: Parzialmente nuvoloso 1219.2 m
LIQN 201750Z VRB02KT 9000 SCT040 15/10 Q1026
LIRU - Rome/Urbe (it-Af, Italy
Distanza dalla stazione: S 61 km
Dati ricevuti: 20-10-2021 18:50
DATI Obsoleti
Sereno  
Sereno  
   Vento: SW 5.6 km/h
Vento: SW 5.6 km/h
Temperatura: 18°C
P.to Rugiada: 13°C
Umidita: 73%
Barometro: 1025 hPa
Visibilita: oltre 10 km
dettagli cloud: Sereno
LIRU 201650Z 23003KT CAVOK 18/13 Q1025
LIRG - Guidonia (it-Afb, Italy
Distanza dalla stazione: SE 68 km
Dati ricevuti: 20-10-2021 19:55
DATI Obsoleti
Parzialmente nuvoloso  
Parzialmente nuvoloso  
   Vento: S 5.6 km/h
Vento: S 5.6 km/h
Temperatura: 17°C
P.to Rugiada: 10°C
Umidita: 64%
Barometro: 1025 hPa
Nuvole: Parzialmente nuvoloso
Visibilita: oltre 10 km
dettagli cloud: Parzialmente nuvoloso 1219.2 m
LIRG 201755Z 16003KT 9999 SCT040 17/10 Q1025
LIRK - Terminillo Mount, Italy
Distanza dalla stazione: E 70 km
Dati ricevuti: 21-10-2021 05:55
  
  
   Vento: West 18.5 km/h
Vento: West 18.5 km/h
Temperatura: 4°C
Temperatura Vento: 0°C
P.to Rugiada: 3°C
Umidita: 93%
Barometro: 1023 hPa
LIRK 210355Z AUTO 28010KT //// 04/03 Q1023
 

Script sviluppato da  Saratoga-weather.org Adattato per il modello da  Weerstation Leuven

Strumentazione usata:

Stazione meteo
Davis VP2

Programma gestore dati meteo
WVIEW

Server per i dati meteo
WDS-5

Davis VP2

WVIEW

WDS-5